createdAt,value
2018-12-15T00:00:01.875Z,-0.80
2018-12-15T00:01:01.896Z,-0.77
2018-12-15T00:02:01.853Z,-0.77
2018-12-15T00:03:01.878Z,-0.72
2018-12-15T00:04:01.840Z,-0.83
2018-12-15T00:05:01.839Z,-0.80
2018-12-15T00:06:01.820Z,-0.72
2018-12-15T00:07:01.800Z,-0.80
2018-12-15T00:08:01.852Z,-0.77
2018-12-15T00:09:01.776Z,-0.83
2018-12-15T00:10:01.796Z,-0.75
2018-12-15T00:11:01.784Z,-0.75
2018-12-15T00:12:01.742Z,-0.74
2018-12-15T00:13:01.729Z,-0.72
2018-12-15T00:14:01.771Z,-0.72
2018-12-15T00:15:01.736Z,-0.77
2018-12-15T00:16:01.708Z,-0.74
2018-12-15T00:17:05.701Z,-0.75
2018-12-15T00:18:01.672Z,-0.86
2018-12-15T00:19:01.687Z,-0.89
2018-12-15T00:20:01.650Z,-0.75
2018-12-15T00:21:01.642Z,-0.72
2018-12-15T00:22:01.679Z,-0.89
2018-12-15T00:23:01.623Z,-0.91
2018-12-15T00:24:01.608Z,-0.94
2018-12-15T00:25:01.599Z,-0.85
2018-12-15T00:26:01.619Z,-0.90
2018-12-15T00:27:01.578Z,-0.89
2018-12-15T00:28:01.568Z,-0.91
2018-12-15T00:29:01.559Z,-0.80
2018-12-15T00:30:01.602Z,-0.89
2018-12-15T00:31:01.534Z,-0.85
2018-12-15T00:32:01.541Z,-0.86
2018-12-15T00:33:01.510Z,-0.80
2018-12-15T00:34:01.496Z,-0.83
2018-12-15T00:35:01.534Z,-0.93
2018-12-15T00:36:01.478Z,-0.89
2018-12-15T00:37:01.507Z,-0.86
2018-12-15T00:38:01.460Z,-0.83
2018-12-15T00:39:01.445Z,-0.97
2018-12-15T00:40:01.431Z,-0.83
2018-12-15T00:41:01.422Z,-0.89
2018-12-15T00:42:01.464Z,-0.83
2018-12-15T00:43:01.411Z,-0.91
2018-12-15T00:44:01.401Z,-0.89
2018-12-15T00:45:01.386Z,-0.83
2018-12-15T00:46:01.368Z,-0.89
2018-12-15T00:47:01.407Z,-0.85
2018-12-15T00:48:01.351Z,-0.89
2018-12-15T00:49:01.350Z,-0.86
2018-12-15T00:50:01.320Z,-0.78
2018-12-15T00:51:01.335Z,-0.89
2018-12-15T00:52:01.341Z,-0.90
2018-12-15T00:53:01.315Z,-0.97
2018-12-15T00:54:01.306Z,-0.91
2018-12-15T00:55:01.292Z,-0.90
2018-12-15T00:56:01.279Z,-0.91
2018-12-15T00:57:01.263Z,-0.94
2018-12-15T00:58:01.276Z,-0.89
2018-12-15T00:59:01.258Z,-0.90
2018-12-15T01:00:01.222Z,-0.89
2018-12-15T01:01:01.221Z,-0.86
2018-12-15T01:02:01.222Z,-0.90
2018-12-15T01:03:01.207Z,-0.82
2018-12-15T01:04:01.199Z,-0.91
2018-12-15T01:05:01.165Z,-0.91
2018-12-15T01:06:01.174Z,-0.90
2018-12-15T01:07:01.137Z,-0.77
2018-12-15T01:08:01.131Z,-0.91
2018-12-15T01:09:01.119Z,-0.91
2018-12-15T01:10:01.104Z,-0.85
2018-12-15T01:11:01.161Z,-0.89
2018-12-15T01:12:01.082Z,-0.82
2018-12-15T01:13:01.073Z,-0.91
2018-12-15T01:14:01.100Z,-0.89
2018-12-15T01:15:01.047Z,-0.89
2018-12-15T01:16:01.039Z,-0.91
2018-12-15T01:17:01.049Z,-0.90
2018-12-15T01:18:01.018Z,-0.91
2018-12-15T01:19:01.055Z,-0.83
2018-12-15T01:20:01.012Z,-0.86
2018-12-15T01:21:01.013Z,-0.80
2018-12-15T01:22:00.972Z,-0.89
2018-12-15T01:23:00.985Z,-0.83
2018-12-15T01:24:00.948Z,-0.89
2018-12-15T01:25:00.967Z,-0.96
2018-12-15T01:26:00.955Z,-0.83
2018-12-15T01:27:00.919Z,-0.89
2018-12-15T01:28:00.926Z,-0.93
2018-12-15T01:29:00.896Z,-0.83
2018-12-15T01:30:00.936Z,-0.80
2018-12-15T01:31:00.905Z,-0.85
2018-12-15T01:32:00.895Z,-0.94
2018-12-15T01:33:00.860Z,-0.89
2018-12-15T01:34:00.857Z,-0.94
2018-12-15T01:35:00.875Z,-0.93
2018-12-15T01:36:00.824Z,-0.80
2018-12-15T01:37:00.835Z,-0.94
2018-12-15T01:38:00.805Z,-0.80
2018-12-15T01:39:00.799Z,-0.85
2018-12-15T01:40:00.797Z,-0.86
2018-12-15T01:41:00.801Z,-0.83
2018-12-15T01:42:00.755Z,-0.89
2018-12-15T01:43:00.743Z,-0.93
2018-12-15T01:44:00.741Z,-0.94
2018-12-15T01:45:00.774Z,-0.91
2018-12-15T01:46:00.705Z,-0.83
2018-12-15T01:47:00.713Z,-0.93
2018-12-15T01:48:00.683Z,-0.89
2018-12-15T01:49:00.681Z,-0.91
2018-12-15T01:50:00.692Z,-0.85
2018-12-15T01:51:00.669Z,-0.89
2018-12-15T01:52:00.688Z,-0.83
2018-12-15T01:53:00.653Z,-0.89
2018-12-15T01:54:00.618Z,-0.85
2018-12-15T01:55:00.612Z,-0.89
2018-12-15T01:56:00.609Z,-0.91
2018-12-15T01:57:00.625Z,-0.85
2018-12-15T01:58:00.603Z,-0.96
2018-12-15T01:59:00.565Z,-0.91
2018-12-15T02:00:00.553Z,-0.85
2018-12-15T02:01:00.599Z,-0.85
2018-12-15T02:02:00.531Z,-0.96
2018-12-15T02:03:00.528Z,-0.90
2018-12-15T02:04:00.514Z,-0.89
2018-12-15T02:05:00.511Z,-0.85
2018-12-15T02:06:00.531Z,-0.94
2018-12-15T02:07:00.479Z,-0.89
2018-12-15T02:08:00.479Z,-0.77
2018-12-15T02:09:00.455Z,-0.83
2018-12-15T02:10:00.457Z,-0.85
2018-12-15T02:11:00.470Z,-0.89
2018-12-15T02:12:00.441Z,-0.90
2018-12-15T02:13:00.409Z,-0.91
2018-12-15T02:14:00.440Z,-0.90
2018-12-15T02:15:00.392Z,-0.91
2018-12-15T02:16:00.387Z,-0.90
2018-12-15T02:17:00.394Z,-0.91
2018-12-15T02:18:00.356Z,-0.89
2018-12-15T02:19:00.413Z,-0.90
2018-12-15T02:20:00.336Z,-0.89
2018-12-15T02:21:00.344Z,-0.83
2018-12-15T02:22:00.345Z,-0.93
2018-12-15T02:23:00.302Z,-0.90
2018-12-15T02:24:00.312Z,-0.91
2018-12-15T02:25:00.288Z,-0.94
2018-12-15T02:26:00.326Z,-0.93
2018-12-15T02:27:00.264Z,-0.86
2018-12-15T02:28:00.249Z,-0.91
2018-12-15T02:29:00.236Z,-0.93
2018-12-15T02:30:00.251Z,-0.93
2018-12-15T02:31:00.262Z,-0.85
2018-12-15T02:32:00.206Z,-0.89
2018-12-15T02:33:00.213Z,-0.93
2018-12-15T02:34:00.182Z,-0.97
2018-12-15T02:35:00.227Z,-0.97
2018-12-15T02:36:00.198Z,-0.93
2018-12-15T02:37:00.150Z,-0.97
2018-12-15T02:38:00.172Z,-0.83
2018-12-15T02:39:00.131Z,-0.85
2018-12-15T02:40:00.152Z,-0.93
2018-12-15T02:41:00.100Z,-0.89
2018-12-15T02:42:00.117Z,-0.89
2018-12-15T02:43:00.106Z,-0.86
2018-12-15T02:44:00.071Z,-0.86
2018-12-15T02:45:00.061Z,-0.89
2018-12-15T02:46:00.069Z,-0.94
2018-12-15T02:47:00.061Z,-0.89
2018-12-15T02:48:00.034Z,-0.91
2018-12-15T02:49:00.031Z,-0.86
2018-12-15T02:50:00.006Z,-0.90
2018-12-15T02:50:59.991Z,-0.93
2018-12-15T02:52:00.016Z,-0.75
2018-12-15T02:53:00.017Z,-0.89
2018-12-15T02:53:59.962Z,-0.83
2018-12-15T02:54:59.958Z,-0.91
2018-12-15T02:55:59.940Z,-0.91
2018-12-15T02:56:59.943Z,-0.90
2018-12-15T02:57:59.957Z,-0.93
2018-12-15T02:58:59.911Z,-0.85
2018-12-15T02:59:59.893Z,-0.94
2018-12-15T03:00:59.891Z,-0.97
2018-12-15T03:01:59.873Z,-0.94
2018-12-15T03:02:59.890Z,-0.96
2018-12-15T03:03:59.879Z,-0.96
2018-12-15T03:04:59.852Z,-1.01
2018-12-15T03:05:59.829Z,-0.97
2018-12-15T03:06:59.844Z,-0.90
2018-12-15T03:07:59.805Z,-0.96
2018-12-15T03:08:59.828Z,-0.94
2018-12-15T03:09:59.808Z,-0.97
2018-12-15T03:10:59.775Z,-0.99
2018-12-15T03:11:59.769Z,-0.91
2018-12-15T03:12:59.791Z,-0.93
2018-12-15T03:13:59.743Z,-0.90
2018-12-15T03:14:59.734Z,-1.02
2018-12-15T03:15:59.721Z,-0.89
2018-12-15T03:16:59.738Z,-0.90
2018-12-15T03:17:59.744Z,-0.94
2018-12-15T03:18:59.724Z,-0.99
2018-12-15T03:19:59.699Z,-0.96
2018-12-15T03:20:59.698Z,-0.99
2018-12-15T03:21:59.727Z,-0.99
2018-12-15T03:22:59.669Z,-1.05
2018-12-15T03:23:59.628Z,-0.97
2018-12-15T03:24:59.632Z,-1.01
2018-12-15T03:25:59.609Z,-0.99
2018-12-15T03:26:59.605Z,-0.96
2018-12-15T03:27:59.610Z,-1.01
2018-12-15T03:28:59.576Z,-1.01
2018-12-15T03:29:59.564Z,-1.04
2018-12-15T03:30:59.583Z,-1.01
2018-12-15T03:31:59.575Z,-0.91
2018-12-15T03:32:59.581Z,-0.96
2018-12-15T03:33:59.521Z,-1.04
2018-12-15T03:34:59.515Z,-0.94
2018-12-15T03:35:59.510Z,-0.89
2018-12-15T03:36:59.506Z,-1.02
2018-12-15T03:37:59.501Z,-0.96
2018-12-15T03:38:59.493Z,-1.01
2018-12-15T03:39:59.491Z,-1.07
2018-12-15T03:40:59.452Z,-0.99
2018-12-15T03:41:59.445Z,-0.96
2018-12-15T03:42:59.419Z,-0.96
2018-12-15T03:43:59.421Z,-0.96
2018-12-15T03:44:59.434Z,-1.05
2018-12-15T03:45:59.389Z,-1.07
2018-12-15T03:46:59.420Z,-1.01
2018-12-15T03:47:59.425Z,-1.02
2018-12-15T03:48:59.356Z,-1.02
2018-12-15T03:49:59.345Z,-0.91
2018-12-15T03:50:59.337Z,-0.94
2018-12-15T03:51:59.322Z,-0.97
2018-12-15T03:52:59.348Z,-0.94
2018-12-15T03:53:59.309Z,-0.97
2018-12-15T03:54:59.325Z,-0.90
2018-12-15T03:55:59.279Z,-0.94
2018-12-15T03:56:59.268Z,-0.94
2018-12-15T03:57:59.283Z,-0.97
2018-12-15T03:58:59.274Z,-1.01
2018-12-15T03:59:59.250Z,-1.12
2018-12-15T04:00:59.248Z,-1.01
2018-12-15T04:01:59.216Z,-1.05
2018-12-15T04:02:59.209Z,-0.99
2018-12-15T04:03:59.197Z,-0.99
2018-12-15T04:04:59.178Z,-1.01
2018-12-15T04:05:59.251Z,-1.02
2018-12-15T04:06:59.158Z,-1.05
2018-12-15T04:07:59.147Z,-1.02
2018-12-15T04:08:59.149Z,-0.97
2018-12-15T04:09:59.137Z,-0.99
2018-12-15T04:10:59.138Z,-0.99
2018-12-15T04:11:59.129Z,-0.94
2018-12-15T04:12:59.092Z,-1.07
2018-12-15T04:13:59.082Z,-0.93
2018-12-15T04:14:59.075Z,-0.94
2018-12-15T04:15:59.084Z,-1.05
2018-12-15T04:16:59.077Z,-0.96
2018-12-15T04:18:03.682Z,-1.02
2018-12-15T04:18:59.024Z,-1.08
2018-12-15T04:19:59.050Z,-0.91
2018-12-15T04:20:59.015Z,-1.04
2018-12-15T04:21:59.004Z,-0.93
2018-12-15T04:22:58.986Z,-0.89
2018-12-15T04:23:59.001Z,-0.97
2018-12-15T04:24:58.992Z,-1.07
2018-12-15T04:25:58.953Z,-0.90
2018-12-15T04:26:58.942Z,-1.04
2018-12-15T04:27:58.957Z,-0.96
2018-12-15T04:28:58.917Z,-0.99
2018-12-15T04:29:58.944Z,-0.94
2018-12-15T04:30:58.900Z,-0.96
2018-12-15T04:31:58.890Z,-1.05
2018-12-15T04:32:58.876Z,-0.93
2018-12-15T04:33:58.869Z,-0.91
2018-12-15T04:34:58.887Z,-0.89
2018-12-15T04:35:58.837Z,-0.96
2018-12-15T04:36:58.827Z,-0.94
2018-12-15T04:37:58.816Z,-0.93
2018-12-15T04:38:58.898Z,-0.91
2018-12-15T04:39:58.796Z,-0.97
2018-12-15T04:40:58.794Z,-0.93
2018-12-15T04:41:58.806Z,-0.96
2018-12-15T04:42:58.796Z,-1.02
2018-12-15T04:43:58.765Z,-0.97
2018-12-15T04:44:58.754Z,-1.02
2018-12-15T04:45:58.731Z,-0.94
2018-12-15T04:46:58.722Z,-0.94
2018-12-15T04:47:58.765Z,-0.93
2018-12-15T04:48:58.751Z,-0.91
2018-12-15T04:49:58.697Z,-0.96
2018-12-15T04:50:58.674Z,-1.05
2018-12-15T04:51:58.669Z,-1.05
2018-12-15T04:52:58.683Z,-0.94
2018-12-15T04:53:58.644Z,-0.96
2018-12-15T04:54:58.639Z,-0.97
2018-12-15T04:55:58.650Z,-0.97
2018-12-15T04:56:58.670Z,-1.04
2018-12-15T04:57:58.599Z,-0.97
2018-12-15T04:58:58.613Z,-0.96
2018-12-15T04:59:58.599Z,-1.01
2018-12-15T05:00:58.571Z,-1.02
2018-12-15T05:01:58.578Z,-0.99
2018-12-15T05:02:58.580Z,-1.02
2018-12-15T05:03:58.539Z,-0.97
2018-12-15T05:04:58.525Z,-1.02
2018-12-15T05:05:58.557Z,-0.96
2018-12-15T05:06:58.503Z,-1.02
2018-12-15T05:07:58.490Z,-1.04
2018-12-15T05:08:58.514Z,-1.02
2018-12-15T05:09:58.468Z,-0.96
2018-12-15T05:10:58.492Z,-0.93
2018-12-15T05:11:58.463Z,-1.01
2018-12-15T05:12:58.433Z,-1.08
2018-12-15T05:13:58.427Z,-1.04
2018-12-15T05:14:58.413Z,-1.07
2018-12-15T05:15:58.425Z,-0.99
2018-12-15T05:16:58.404Z,-1.05
2018-12-15T05:17:58.380Z,-1.05
2018-12-15T05:18:58.403Z,-1.07
2018-12-15T05:19:58.358Z,-1.07
2018-12-15T05:20:58.368Z,-1.04
2018-12-15T05:21:58.333Z,-1.11
2018-12-15T05:22:58.325Z,-1.07
2018-12-15T05:23:58.321Z,-1.04
2018-12-15T05:24:58.301Z,-1.04
2018-12-15T05:25:58.359Z,-0.99
2018-12-15T05:26:58.327Z,-1.12
2018-12-15T05:27:58.303Z,-1.08
2018-12-15T05:28:58.260Z,-1.02
2018-12-15T05:29:58.254Z,-1.02
2018-12-15T05:30:58.237Z,-1.08
2018-12-15T05:31:58.239Z,-1.02
2018-12-15T05:32:58.244Z,-1.02
2018-12-15T05:33:58.209Z,-1.05
2018-12-15T05:34:58.196Z,-1.04
2018-12-15T05:35:58.205Z,-1.05
2018-12-15T05:36:58.174Z,-1.02
2018-12-15T05:37:58.157Z,-1.02
2018-12-15T05:38:58.152Z,-1.02
2018-12-15T05:39:58.135Z,-1.01
2018-12-15T05:40:58.148Z,-1.02
2018-12-15T05:41:58.121Z,-1.01
2018-12-15T05:42:58.112Z,-0.99
2018-12-15T05:43:58.095Z,-1.05
2018-12-15T05:44:58.091Z,-1.07
2018-12-15T05:45:58.099Z,-0.89
2018-12-15T05:46:58.060Z,-0.90
2018-12-15T05:47:58.051Z,-0.97
2018-12-15T05:48:58.064Z,-0.96
2018-12-15T05:49:58.035Z,-0.97
2018-12-15T05:50:58.055Z,-1.07
2018-12-15T05:51:58.018Z,-1.04
2018-12-15T05:52:58.007Z,-1.02
2018-12-15T05:53:58.009Z,-1.02
2018-12-15T05:54:58.021Z,-1.02
2018-12-15T05:55:57.983Z,-1.02
2018-12-15T05:56:57.958Z,-0.99
2018-12-15T05:57:57.940Z,-1.02
2018-12-15T05:58:57.968Z,-1.04
2018-12-15T05:59:57.921Z,-1.04
2018-12-15T06:00:57.927Z,-0.96
2018-12-15T06:01:57.898Z,-0.89
2018-12-15T06:02:57.922Z,-1.04
2018-12-15T06:03:57.884Z,-0.94
2018-12-15T06:04:57.883Z,-1.04
2018-12-15T06:05:57.851Z,-1.02
2018-12-15T06:06:57.844Z,-0.99
2018-12-15T06:07:57.877Z,-1.01
2018-12-15T06:08:57.822Z,-0.89
2018-12-15T06:09:57.816Z,-1.05
2018-12-15T06:10:57.800Z,-1.02
2018-12-15T06:11:57.784Z,-0.99
2018-12-15T06:12:57.822Z,-0.94
2018-12-15T06:13:57.767Z,-1.02
2018-12-15T06:14:57.759Z,-0.97
2018-12-15T06:15:57.741Z,-0.90
2018-12-15T06:16:57.755Z,-0.94
2018-12-15T06:17:57.779Z,-0.91
2018-12-15T06:18:57.711Z,-1.07
2018-12-15T06:19:57.709Z,-1.05
2018-12-15T06:20:57.687Z,-1.01
2018-12-15T06:21:57.674Z,-1.04
2018-12-15T06:22:57.722Z,-0.97
2018-12-15T06:23:57.656Z,-0.91
2018-12-15T06:24:57.649Z,-0.89
2018-12-15T06:25:57.665Z,-0.90
2018-12-15T06:26:57.624Z,-1.01
2018-12-15T06:27:57.639Z,-1.04
2018-12-15T06:28:57.611Z,-0.97
2018-12-15T06:29:57.588Z,-1.04
2018-12-15T06:30:57.577Z,-0.99
2018-12-15T06:31:57.602Z,-1.01
2018-12-15T06:32:57.562Z,-0.94
2018-12-15T06:33:57.556Z,-1.01
2018-12-15T06:34:57.535Z,-1.04
2018-12-15T06:35:57.578Z,-0.96
2018-12-15T06:36:57.536Z,-0.91
2018-12-15T06:37:57.503Z,-0.90
2018-12-15T06:38:57.487Z,-1.04
2018-12-15T06:39:57.478Z,-0.91
2018-12-15T06:40:57.489Z,-1.04
2018-12-15T06:41:57.461Z,-1.04
2018-12-15T06:42:57.470Z,-0.91
2018-12-15T06:43:57.467Z,-1.02
2018-12-15T06:44:57.428Z,-0.96
2018-12-15T06:45:57.419Z,-0.91
2018-12-15T06:46:57.405Z,-0.96
2018-12-15T06:47:57.389Z,-0.94
2018-12-15T06:48:57.427Z,-0.94
2018-12-15T06:49:57.369Z,-0.90
2018-12-15T06:50:57.398Z,-0.97
2018-12-15T06:51:57.345Z,-0.94
2018-12-15T06:52:57.337Z,-1.02
2018-12-15T06:53:57.347Z,-0.90
2018-12-15T06:54:57.314Z,-0.94
2018-12-15T06:55:57.302Z,-0.93
2018-12-15T06:56:57.329Z,-0.93
2018-12-15T06:57:57.288Z,-0.97
2018-12-15T06:58:57.294Z,-0.97
2018-12-15T06:59:57.266Z,-0.93
2018-12-15T07:00:57.249Z,-0.89
2018-12-15T07:01:57.238Z,-0.93
2018-12-15T07:02:57.270Z,-0.91
2018-12-15T07:03:57.218Z,-0.93
2018-12-15T07:04:57.235Z,-0.94
2018-12-15T07:05:57.192Z,-0.86
2018-12-15T07:06:57.205Z,-0.99
2018-12-15T07:07:57.187Z,-0.93
2018-12-15T07:08:57.160Z,-1.02
2018-12-15T07:09:57.149Z,-0.99
2018-12-15T07:10:57.171Z,-0.94
2018-12-15T07:11:57.144Z,-0.96
2018-12-15T07:12:57.142Z,-0.89
2018-12-15T07:13:57.105Z,-0.93
2018-12-15T07:14:57.108Z,-0.96
2018-12-15T07:15:57.119Z,-0.91
2018-12-15T07:16:57.074Z,-0.94
2018-12-15T07:17:57.062Z,-0.91
2018-12-15T07:18:57.068Z,-0.94
2018-12-15T07:19:57.042Z,-0.96
2018-12-15T07:20:57.054Z,-0.94
2018-12-15T07:21:57.014Z,-0.86
2018-12-15T07:22:57.014Z,-0.97
2018-12-15T07:23:57.028Z,-0.93
2018-12-15T07:24:57.016Z,-0.90
2018-12-15T07:25:56.982Z,-0.94
2018-12-15T07:26:56.962Z,-0.78
2018-12-15T07:27:56.949Z,-0.86
2018-12-15T07:28:56.969Z,-0.86
2018-12-15T07:29:56.995Z,-0.94
2018-12-15T07:30:56.936Z,-0.85
2018-12-15T07:31:56.908Z,-0.90
2018-12-15T07:32:56.907Z,-0.93
2018-12-15T07:33:56.930Z,-0.80
2018-12-15T07:35:00.874Z,-0.93
2018-12-15T07:35:56.883Z,-0.93
2018-12-15T07:36:56.861Z,-0.90
2018-12-15T07:37:56.850Z,-0.90
2018-12-15T07:38:56.855Z,-0.85
2018-12-15T07:39:56.820Z,-0.90
2018-12-15T07:40:56.805Z,-0.80
2018-12-15T07:41:56.798Z,-0.85
2018-12-15T07:42:56.805Z,-0.96
2018-12-15T07:43:56.778Z,-0.96
2018-12-15T07:44:56.762Z,-0.94
2018-12-15T07:45:56.788Z,-0.89
2018-12-15T07:46:56.776Z,-0.89
2018-12-15T07:47:56.736Z,-0.86
2018-12-15T07:48:56.736Z,-0.86
2018-12-15T07:49:56.727Z,-0.83
2018-12-15T07:50:56.699Z,-0.90
2018-12-15T07:51:56.727Z,-0.86
2018-12-15T07:52:56.675Z,-0.90
2018-12-15T07:53:56.692Z,-0.89
2018-12-15T07:54:56.687Z,-0.90
2018-12-15T07:55:56.640Z,-0.91
2018-12-15T07:56:56.672Z,-0.86
2018-12-15T07:57:56.640Z,-0.91
2018-12-15T07:58:56.610Z,-0.91
2018-12-15T07:59:56.602Z,-0.75
2018-12-15T08:00:56.601Z,-0.94
2018-12-15T08:01:56.601Z,-0.83
2018-12-15T08:02:56.568Z,-0.80
2018-12-15T08:03:56.595Z,-0.89
2018-12-15T08:04:56.547Z,-0.80
2018-12-15T08:05:56.533Z,-0.94
2018-12-15T08:06:56.552Z,-0.90
2018-12-15T08:07:56.513Z,-0.80
2018-12-15T08:08:56.513Z,-0.89
2018-12-15T08:09:56.489Z,-0.80
2018-12-15T08:10:56.528Z,-0.80
2018-12-15T08:11:56.475Z,-0.83
2018-12-15T08:12:56.471Z,-0.83
2018-12-15T08:13:56.460Z,-0.83
2018-12-15T08:14:56.448Z,-0.80
2018-12-15T08:15:56.448Z,-0.75
2018-12-15T08:16:56.439Z,-0.82
2018-12-15T08:17:56.414Z,-0.75
2018-12-15T08:18:58.184Z,-0.77
2018-12-15T08:19:56.472Z,-0.83
2018-12-15T08:20:56.411Z,-0.77
2018-12-15T08:21:56.356Z,-0.82
2018-12-15T08:22:56.353Z,-0.75
2018-12-15T08:23:56.335Z,-0.78
2018-12-15T08:24:56.339Z,-0.78
2018-12-15T08:25:56.342Z,-0.82
2018-12-15T08:26:56.303Z,-0.72
2018-12-15T08:27:56.304Z,-0.80
2018-12-15T08:28:56.282Z,-0.78
2018-12-15T08:29:56.297Z,-0.74
2018-12-15T08:30:56.258Z,-0.72
2018-12-15T08:31:56.247Z,-0.72
2018-12-15T08:32:56.273Z,-0.74
2018-12-15T08:33:56.227Z,-0.72
2018-12-15T08:34:56.240Z,-0.77
2018-12-15T08:35:56.212Z,-0.77
2018-12-15T08:36:56.191Z,-0.70
2018-12-15T08:37:56.194Z,-0.71
2018-12-15T08:38:56.168Z,-0.71
2018-12-15T08:39:56.186Z,-0.71
2018-12-15T08:40:56.151Z,-0.71
2018-12-15T08:41:56.150Z,-0.74
2018-12-15T08:42:56.172Z,-0.72
2018-12-15T08:43:56.118Z,-0.70
2018-12-15T08:44:56.105Z,-0.74
2018-12-15T08:45:56.117Z,-0.71
2018-12-15T08:46:56.178Z,-0.68
2018-12-15T08:47:56.082Z,-0.67
2018-12-15T08:48:56.067Z,-0.67
2018-12-15T08:49:56.113Z,-0.68
2018-12-15T08:50:56.051Z,-0.74
2018-12-15T08:51:56.026Z,-0.70
2018-12-15T08:52:56.020Z,-0.68
2018-12-15T08:53:56.003Z,-0.70
2018-12-15T08:54:56.027Z,-0.70
2018-12-15T08:55:55.985Z,-0.70
2018-12-15T08:56:55.983Z,-0.71
2018-12-15T08:57:56.002Z,-0.70
2018-12-15T08:58:55.947Z,-0.67
2018-12-15T08:59:55.936Z,-0.74
2018-12-15T09:00:56.017Z,-0.71
2018-12-15T09:01:55.956Z,-0.70
2018-12-15T09:02:55.913Z,-0.77
2018-12-15T09:03:55.893Z,-0.70
2018-12-15T09:04:55.884Z,-0.77
2018-12-15T09:05:55.929Z,-0.71
2018-12-15T09:06:55.895Z,-0.65
2018-12-15T09:07:55.862Z,-0.71
2018-12-15T09:08:55.842Z,-0.71
2018-12-15T09:09:55.826Z,-0.70
2018-12-15T09:10:55.841Z,-0.71
2018-12-15T09:11:55.808Z,-0.68
2018-12-15T09:12:55.829Z,-0.67
2018-12-15T09:13:55.784Z,-0.62
2018-12-15T09:14:55.840Z,-0.65
2018-12-15T09:15:55.784Z,-0.71
2018-12-15T09:16:55.751Z,-0.65
2018-12-15T09:17:55.738Z,-0.65
2018-12-15T09:18:55.760Z,-0.62
2018-12-15T09:19:55.743Z,-0.72
2018-12-15T09:20:55.721Z,-0.67
2018-12-15T09:21:55.706Z,-0.68
2018-12-15T09:22:55.717Z,-0.61
2018-12-15T09:23:55.701Z,-0.72
2018-12-15T09:24:55.732Z,-0.68
2018-12-15T09:25:55.675Z,-0.68
2018-12-15T09:26:55.695Z,-0.71
2018-12-15T09:27:55.639Z,-0.68
2018-12-15T09:28:55.620Z,-0.70
2018-12-15T09:29:55.625Z,-0.61
2018-12-15T09:30:55.611Z,-0.70
2018-12-15T09:31:55.615Z,-0.68
2018-12-15T09:32:55.574Z,-0.71
2018-12-15T09:33:55.592Z,-0.71
2018-12-15T09:34:55.564Z,-0.72
2018-12-15T09:35:55.577Z,-0.74
2018-12-15T09:36:55.583Z,-0.70
2018-12-15T09:37:55.528Z,-0.71
2018-12-15T09:38:55.533Z,-0.65
2018-12-15T09:39:55.519Z,-0.64
2018-12-15T09:40:55.529Z,-0.62
2018-12-15T09:41:55.473Z,-0.62
2018-12-15T09:42:55.497Z,-0.72
2018-12-15T09:43:55.487Z,-0.62
2018-12-15T09:44:55.470Z,-0.67
2018-12-15T09:45:55.430Z,-0.71
2018-12-15T09:46:55.438Z,-0.65
2018-12-15T09:47:55.422Z,-0.62
2018-12-15T09:48:55.427Z,-0.62
2018-12-15T09:49:55.412Z,-0.65
2018-12-15T09:50:55.392Z,-0.64
2018-12-15T09:51:55.366Z,-0.65
2018-12-15T09:52:55.371Z,-0.72
2018-12-15T09:53:55.360Z,-0.68
2018-12-15T09:54:55.378Z,-0.59
2018-12-15T09:55:55.327Z,-0.61
2018-12-15T09:56:55.317Z,-0.68
2018-12-15T09:57:55.313Z,-0.57
2018-12-15T09:58:55.311Z,-0.67
2018-12-15T09:59:55.324Z,-0.67
2018-12-15T10:00:55.266Z,-0.67
2018-12-15T10:01:55.279Z,-0.65
2018-12-15T10:02:55.285Z,-0.70
2018-12-15T10:03:55.244Z,-0.62
2018-12-15T10:04:55.248Z,-0.65
2018-12-15T10:05:55.228Z,-0.68
2018-12-15T10:06:55.223Z,-0.65
2018-12-15T10:07:55.210Z,-0.64
2018-12-15T10:08:55.180Z,-0.65
2018-12-15T10:09:55.232Z,-0.67
2018-12-15T10:10:55.164Z,-0.62
2018-12-15T10:11:55.146Z,-0.64
2018-12-15T10:12:55.134Z,-0.67
2018-12-15T10:13:55.122Z,-0.64
2018-12-15T10:14:55.171Z,-0.59
2018-12-15T10:15:55.131Z,-0.67
2018-12-15T10:16:55.106Z,-0.62
2018-12-15T10:17:55.125Z,-0.67
2018-12-15T10:18:55.067Z,-0.57
2018-12-15T10:19:55.056Z,-0.61
2018-12-15T10:20:55.071Z,-0.64
2018-12-15T10:21:55.108Z,-0.62
2018-12-15T10:22:55.052Z,-0.56
2018-12-15T10:23:55.020Z,-0.54
2018-12-15T10:24:55.032Z,-0.64
2018-12-15T10:25:55.016Z,-0.52
2018-12-15T10:26:55.008Z,-0.67
2018-12-15T10:27:54.979Z,-0.56
2018-12-15T10:28:54.973Z,-0.52
2018-12-15T10:29:54.951Z,-0.52
2018-12-15T10:30:54.951Z,-0.64
2018-12-15T10:31:54.975Z,-0.70
2018-12-15T10:32:54.923Z,-0.62
2018-12-15T10:33:54.930Z,-0.54
2018-12-15T10:34:54.926Z,-0.54
2018-12-15T10:35:54.922Z,-0.62
2018-12-15T10:36:54.889Z,-0.50
2018-12-15T10:37:54.857Z,-0.52
2018-12-15T10:38:54.847Z,-0.61
2018-12-15T10:39:54.876Z,-0.56
2018-12-15T10:40:54.859Z,-0.62
2018-12-15T10:41:54.814Z,-0.54
2018-12-15T10:42:54.806Z,-0.53
2018-12-15T10:43:54.818Z,-0.56
2018-12-15T10:44:54.795Z,-0.53
2018-12-15T10:45:54.785Z,-0.53
2018-12-15T10:46:54.815Z,-0.53
2018-12-15T10:47:54.762Z,-0.54
2018-12-15T10:48:54.742Z,-0.52
2018-12-15T10:49:54.741Z,-0.53
2018-12-15T10:50:54.735Z,-0.62
2018-12-15T10:51:54.742Z,-0.53
2018-12-15T10:52:54.700Z,-0.62
2018-12-15T10:53:54.694Z,-0.49
2018-12-15T10:54:54.671Z,-0.47
2018-12-15T10:55:54.707Z,-0.47
2018-12-15T10:56:54.655Z,-0.46
2018-12-15T10:57:54.644Z,-0.52
2018-12-15T10:58:54.696Z,-0.52
2018-12-15T10:59:54.620Z,-0.52
2018-12-15T11:00:54.607Z,-0.50
2018-12-15T11:01:54.596Z,-0.52
2018-12-15T11:02:54.711Z,-0.50
2018-12-15T11:04:00.668Z,-0.50
2018-12-15T11:04:55.620Z,-0.47
2018-12-15T11:05:54.558Z,-0.49
2018-12-15T11:06:54.539Z,-0.47
2018-12-15T11:07:54.554Z,-0.50
2018-12-15T11:08:54.542Z,-0.50
2018-12-15T11:09:54.535Z,-0.49
2018-12-15T11:10:54.552Z,-0.56
2018-12-15T11:11:54.523Z,-0.47
2018-12-15T11:12:54.486Z,-0.47
2018-12-15T11:13:54.470Z,-0.57
2018-12-15T11:14:54.451Z,-0.44
2018-12-15T11:15:54.442Z,-0.53
2018-12-15T11:16:54.463Z,-0.41
2018-12-15T11:17:54.420Z,-0.47
2018-12-15T11:18:54.411Z,-0.50
2018-12-15T11:19:54.445Z,-0.38
2018-12-15T11:20:54.412Z,-0.54
2018-12-15T11:21:54.374Z,-0.43
2018-12-15T11:22:54.366Z,-0.34
2018-12-15T11:23:54.362Z,-0.38
2018-12-15T11:24:54.371Z,-0.39
2018-12-15T11:25:54.333Z,-0.39
2018-12-15T11:26:54.326Z,-0.44
2018-12-15T11:27:54.331Z,-0.32
2018-12-15T11:28:54.346Z,-0.38
2018-12-15T11:29:54.313Z,-0.36
2018-12-15T11:30:54.281Z,-0.46
2018-12-15T11:31:54.266Z,-0.35
2018-12-15T11:32:54.255Z,-0.36
2018-12-15T11:33:54.243Z,-0.35
2018-12-15T11:34:54.259Z,-0.39
2018-12-15T11:35:54.234Z,-0.31
2018-12-15T11:36:54.225Z,-0.38
2018-12-15T11:37:54.252Z,-0.43
2018-12-15T11:38:54.190Z,-0.29
2018-12-15T11:39:55.187Z,-0.25
2018-12-15T11:40:54.263Z,-0.28
2018-12-15T11:41:54.161Z,-0.32
2018-12-15T11:42:54.150Z,-0.36
2018-12-15T11:43:54.138Z,-0.21
2018-12-15T11:44:54.148Z,-0.26
2018-12-15T11:45:54.144Z,-0.31
2018-12-15T11:46:54.105Z,-0.26
2018-12-15T11:47:54.090Z,-0.26
2018-12-15T11:48:54.079Z,-0.18
2018-12-15T11:49:54.090Z,-0.14
2018-12-15T11:50:54.057Z,-0.08
2018-12-15T11:51:54.059Z,-0.08
2018-12-15T11:52:54.036Z,-0.23
2018-12-15T11:53:54.047Z,-0.21
2018-12-15T11:54:54.013Z,-0.17
2018-12-15T11:55:54.001Z,-0.23
2018-12-15T11:56:53.990Z,-0.23
2018-12-15T11:57:53.989Z,-0.13
2018-12-15T11:58:54.031Z,-0.11
2018-12-15T11:59:53.956Z,-0.08
2018-12-15T12:00:53.950Z,-0.14
2018-12-15T12:01:53.941Z,-0.13
2018-12-15T12:02:53.962Z,-0.15
2018-12-15T12:03:53.917Z,-0.14
2018-12-15T12:04:53.953Z,-0.10
2018-12-15T12:05:53.893Z,-0.11
2018-12-15T12:06:53.896Z,-0.21
2018-12-15T12:07:53.893Z,-0.13
2018-12-15T12:08:53.860Z,-0.15
2018-12-15T12:09:53.850Z,-0.02
2018-12-15T12:10:53.863Z,-0.08
2018-12-15T12:11:53.842Z,-0.11
2018-12-15T12:12:53.817Z,-0.13
2018-12-15T12:14:00.151Z,-0.13
2018-12-15T12:14:54.815Z,-0.10
2018-12-15T12:15:53.784Z,-0.08
2018-12-15T12:16:53.771Z,-0.08
2018-12-15T12:17:53.773Z,-0.15
2018-12-15T12:18:53.753Z,-0.08
2018-12-15T12:19:53.775Z,-0.10
2018-12-15T12:20:53.728Z,-0.14
2018-12-15T12:21:53.716Z,-0.15
2018-12-15T12:22:53.723Z,-0.11
2018-12-15T12:23:53.767Z,-0.11
2018-12-15T12:24:53.723Z,-0.10
2018-12-15T12:25:54.691Z,-0.10
2018-12-15T12:26:53.662Z,-0.08
2018-12-15T12:27:53.660Z,0.01
2018-12-15T12:28:53.643Z,-0.10
2018-12-15T12:29:53.656Z,-0.14
2018-12-15T12:30:53.619Z,-0.11
2018-12-15T12:31:53.668Z,-0.13
2018-12-15T12:32:53.595Z,-0.11
2018-12-15T12:33:53.612Z,-0.10
2018-12-15T12:34:53.579Z,-0.13
2018-12-15T12:35:53.562Z,-0.10
2018-12-15T12:36:53.556Z,-0.11
2018-12-15T12:37:53.546Z,-0.13
2018-12-15T12:38:53.562Z,-0.14
2018-12-15T12:39:53.555Z,-0.11
2018-12-15T12:40:53.508Z,-0.07
2018-12-15T12:41:53.497Z,-0.02
2018-12-15T12:42:53.486Z,-0.06
2018-12-15T12:43:53.510Z,-0.13
2018-12-15T12:44:53.466Z,-0.14
2018-12-15T12:45:53.466Z,-0.08
2018-12-15T12:46:53.516Z,-0.10
2018-12-15T12:47:53.440Z,-0.08
2018-12-15T12:48:53.423Z,-0.10
2018-12-15T12:49:56.810Z,-0.10
2018-12-15T12:50:53.407Z,-0.13
2018-12-15T12:51:53.454Z,-0.13